sensor_id;sensor_type;location;lat;lon;timestamp;pressure;altitude;pressure_sealevel;temperature;humidity
73105;BME280;61296;50.526;30.792;2023-02-20T00:09:41;98701.00;;;-1.52;74.80
73105;BME280;61296;50.526;30.792;2023-02-20T00:25:00;98736.56;;;-1.33;73.98
73105;BME280;61296;50.526;30.792;2023-02-20T00:40:22;98754.47;;;-1.28;72.46
73105;BME280;61296;50.526;30.792;2023-02-20T00:55:42;98693.69;;;-1.60;71.92
73105;BME280;61296;50.526;30.792;2023-02-20T01:11:03;98678.91;;;-1.80;71.62
73105;BME280;61296;50.526;30.792;2023-02-20T01:26:23;98728.44;;;-1.50;70.88
73105;BME280;61296;50.526;30.792;2023-02-20T01:41:45;98740.78;;;-1.58;71.32
73105;BME280;61296;50.526;30.792;2023-02-20T01:57:08;98766.84;;;-1.53;71.84
73105;BME280;61296;50.526;30.792;2023-02-20T02:12:31;98706.41;;;-2.09;72.13
73105;BME280;61296;50.526;30.792;2023-02-20T02:28:00;98753.94;;;-1.73;72.45
73105;BME280;61296;50.526;30.792;2023-02-20T02:43:36;98766.91;;;-1.84;72.75
73105;BME280;61296;50.526;30.792;2023-02-20T02:58:59;98753.56;;;-1.89;72.60
73105;BME280;61296;50.526;30.792;2023-02-20T03:14:22;98629.66;;;-2.77;73.01
73105;BME280;61296;50.526;30.792;2023-02-20T03:30:07;98748.56;;;-2.13;72.89
73105;BME280;61296;50.526;30.792;2023-02-20T03:45:30;98739.47;;;-2.26;73.22
73105;BME280;61296;50.526;30.792;2023-02-20T04:00:51;98760.97;;;-2.35;73.64
73105;BME280;61296;50.526;30.792;2023-02-20T04:16:12;98741.97;;;-2.29;72.86
73105;BME280;61296;50.526;30.792;2023-02-20T04:31:32;98692.81;;;-2.75;72.41
73105;BME280;61296;50.526;30.792;2023-02-20T04:46:52;98716.72;;;-2.42;72.03
73105;BME280;61296;50.526;30.792;2023-02-20T05:02:13;98653.97;;;-2.91;71.60
73105;BME280;61296;50.526;30.792;2023-02-20T05:17:32;98716.03;;;-2.56;71.12
73105;BME280;61296;50.526;30.792;2023-02-20T05:32:51;98731.97;;;-2.07;69.17
73105;BME280;61296;50.526;30.792;2023-02-20T05:48:11;98767.97;;;-1.28;67.62
73105;BME280;61296;50.526;30.792;2023-02-20T06:03:30;98656.41;;;-1.76;66.21
73105;BME280;61296;50.526;30.792;2023-02-20T06:18:50;98728.31;;;-1.10;65.94
73105;BME280;61296;50.526;30.792;2023-02-20T06:34:12;98762.25;;;-0.66;64.77
73105;BME280;61296;50.526;30.792;2023-02-20T06:49:31;98724.59;;;-0.63;64.01
73105;BME280;61296;50.526;30.792;2023-02-20T07:04:51;98799.56;;;0.13;62.68
73105;BME280;61296;50.526;30.792;2023-02-20T07:20:10;98787.78;;;0.18;61.88
73105;BME280;61296;50.526;30.792;2023-02-20T07:35:29;98707.06;;;-0.31;61.56
73105;BME280;61296;50.526;30.792;2023-02-20T07:50:54;98762.47;;;0.52;60.01
73105;BME280;61296;50.526;30.792;2023-02-20T08:06:16;98789.44;;;0.90;58.73
73105;BME280;61296;50.526;30.792;2023-02-20T08:21:35;98701.56;;;0.46;57.26
73105;BME280;61296;50.526;30.792;2023-02-20T08:36:55;98794.69;;;1.16;55.82
73105;BME280;61296;50.526;30.792;2023-02-20T08:52:14;98781.72;;;1.01;55.37
73105;BME280;61296;50.526;30.792;2023-02-20T09:07:34;98690.75;;;0.67;54.49
73105;BME280;61296;50.526;30.792;2023-02-20T09:22:56;98795.72;;;1.24;54.49
73105;BME280;61296;50.526;30.792;2023-02-20T09:38:17;98702.41;;;1.00;53.91
73105;BME280;61296;50.526;30.792;2023-02-20T10:08:59;98722.41;;;1.86;51.14
73105;BME280;61296;50.526;30.792;2023-02-20T10:39:47;98684.47;;;2.11;49.27
73105;BME280;61296;50.526;30.792;2023-02-20T10:55:14;98638.16;;;1.79;49.69
73105;BME280;61296;50.526;30.792;2023-02-20T11:10:35;98628.75;;;1.64;51.11
73105;BME280;61296;50.526;30.792;2023-02-20T11:26:12;98612.22;;;2.18;50.73
73105;BME280;61296;50.526;30.792;2023-02-20T11:41:35;98660.06;;;2.11;51.45
73105;BME280;61296;50.526;30.792;2023-02-20T11:57:15;98612.84;;;1.75;50.23
73105;BME280;61296;50.526;30.792;2023-02-20T12:12:37;98645.00;;;2.25;49.71
73105;BME280;61296;50.526;30.792;2023-02-20T12:44:09;98641.03;;;2.35;49.57
73105;BME280;61296;50.526;30.792;2023-02-20T12:59:52;98638.22;;;2.07;52.11
73105;BME280;61296;50.526;30.792;2023-02-20T13:15:42;98600.88;;;1.88;52.82
73105;BME280;61296;50.526;30.792;2023-02-20T13:46:54;98591.94;;;2.00;53.32
73105;BME280;61296;50.526;30.792;2023-02-20T14:02:18;98574.06;;;1.87;54.15
73105;BME280;61296;50.526;30.792;2023-02-20T14:17:42;98500.94;;;1.50;55.05
73105;BME280;61296;50.526;30.792;2023-02-20T14:33:02;98542.69;;;1.86;55.77
73105;BME280;61296;50.526;30.792;2023-02-20T14:48:29;98509.75;;;1.59;56.94
73105;BME280;61296;50.526;30.792;2023-02-20T15:04:00;98438.66;;;1.38;59.54
73105;BME280;61296;50.526;30.792;2023-02-20T15:19:32;98355.44;;;0.98;63.74
73105;BME280;61296;50.526;30.792;2023-02-20T15:34:54;98384.16;;;1.27;68.13
73105;BME280;61296;50.526;30.792;2023-02-20T15:50:14;98344.13;;;1.08;70.56
73105;BME280;61296;50.526;30.792;2023-02-20T16:05:33;98350.13;;;1.02;75.20
73105;BME280;61296;50.526;30.792;2023-02-20T16:20:53;98299.63;;;0.69;75.72
73105;BME280;61296;50.526;30.792;2023-02-20T16:36:13;98348.38;;;1.22;76.01
73105;BME280;61296;50.526;30.792;2023-02-20T16:51:32;98320.81;;;1.32;77.19
73105;BME280;61296;50.526;30.792;2023-02-20T17:06:51;98265.69;;;0.84;82.51
73105;BME280;61296;50.526;30.792;2023-02-20T17:22:12;98244.44;;;0.46;87.59
73105;BME280;61296;50.526;30.792;2023-02-20T17:37:32;98245.75;;;0.64;90.37
73105;BME280;61296;50.526;30.792;2023-02-20T17:52:52;98170.41;;;0.26;92.96
73105;BME280;61296;50.526;30.792;2023-02-20T18:08:14;98124.97;;;-0.09;95.56
73105;BME280;61296;50.526;30.792;2023-02-20T18:23:33;98115.47;;;0.22;96.36
73105;BME280;61296;50.526;30.792;2023-02-20T18:38:52;98013.94;;;-0.16;97.49
73105;BME280;61296;50.526;30.792;2023-02-20T18:54:21;97974.66;;;-0.13;99.11
73105;BME280;61296;50.526;30.792;2023-02-20T19:09:44;97848.88;;;-0.67;100.00
73105;BME280;61296;50.526;30.792;2023-02-20T19:25:03;97827.50;;;-0.60;100.00
73105;BME280;61296;50.526;30.792;2023-02-20T19:40:23;97790.28;;;-0.38;100.00
73105;BME280;61296;50.526;30.792;2023-02-20T19:55:42;97732.44;;;-0.65;100.00
73105;BME280;61296;50.526;30.792;2023-02-20T20:11:01;97724.25;;;-0.41;100.00
73105;BME280;61296;50.526;30.792;2023-02-20T20:26:30;97581.19;;;-0.84;100.00
73105;BME280;61296;50.526;30.792;2023-02-20T20:41:49;97606.44;;;-0.30;100.00
73105;BME280;61296;50.526;30.792;2023-02-20T20:57:09;97493.44;;;-0.78;100.00
73105;BME280;61296;50.526;30.792;2023-02-20T21:12:28;97472.75;;;-0.55;100.00
73105;BME280;61296;50.526;30.792;2023-02-20T21:27:47;97433.31;;;-0.60;100.00
73105;BME280;61296;50.526;30.792;2023-02-20T21:43:09;97446.00;;;-0.25;100.00
73105;BME280;61296;50.526;30.792;2023-02-20T21:58:47;97350.78;;;-0.41;100.00
73105;BME280;61296;50.526;30.792;2023-02-20T22:14:21;97350.06;;;0.04;100.00
73105;BME280;61296;50.526;30.792;2023-02-20T22:29:59;97273.91;;;-0.02;100.00
73105;BME280;61296;50.526;30.792;2023-02-20T22:45:37;97319.53;;;0.49;100.00
73105;BME280;61296;50.526;30.792;2023-02-20T23:01:15;97283.22;;;0.50;100.00
73105;BME280;61296;50.526;30.792;2023-02-20T23:16:53;97192.88;;;0.25;100.00
73105;BME280;61296;50.526;30.792;2023-02-20T23:32:31;97247.66;;;0.75;100.00
73105;BME280;61296;50.526;30.792;2023-02-20T23:48:10;97231.97;;;0.88;100.00
